createdAt,value
2023-01-09T09:07:25.870Z,96901.43
2023-01-09T09:09:55.577Z,96903.45
2023-01-09T09:13:08.802Z,96904.69
2023-01-09T09:15:38.396Z,96901.61
2023-01-09T09:18:08.769Z,96903.44
2023-01-09T09:20:39.424Z,96902.48
2023-01-09T09:23:08.475Z,96901.10
2023-01-09T09:25:37.846Z,96900.02
2023-01-09T09:28:07.095Z,96899.92
2023-01-09T09:30:37.820Z,96901.17
2023-01-09T09:33:07.081Z,96897.92
2023-01-09T09:35:36.459Z,96896.91
2023-01-09T09:38:06.176Z,96893.13
2023-01-09T09:40:58.660Z,96885.59
2023-01-09T09:44:09.136Z,96886.33
2023-01-09T09:46:49.085Z,96875.58
2023-01-09T09:49:22.900Z,96871.70
2023-01-09T09:52:11.821Z,96875.14
2023-01-09T09:54:43.696Z,96874.95
2023-01-09T09:57:17.526Z,96870.91
2023-01-09T09:59:50.675Z,96870.77
2023-01-09T10:02:29.408Z,96870.34
2023-01-09T10:05:05.288Z,96864.71
2023-01-09T10:07:41.472Z,96866.03
2023-01-09T10:10:19.544Z,96863.38
2023-01-09T10:12:56.059Z,96866.34
2023-01-09T10:15:38.283Z,96866.19
2023-01-09T10:18:23.602Z,96862.39
2023-01-09T10:20:58.335Z,96865.66
2023-01-09T10:23:58.147Z,96863.08
2023-01-09T10:26:32.594Z,96857.25
2023-01-09T10:29:16.182Z,96855.02
2023-01-09T10:31:56.263Z,96855.12
2023-01-09T10:34:39.375Z,96853.27
2023-01-09T10:37:14.716Z,96849.81
2023-01-09T10:39:49.307Z,96847.36
2023-01-09T10:42:23.278Z,96843.75
2023-01-09T10:44:59.510Z,96839.28
2023-01-09T10:47:30.434Z,96838.38
2023-01-09T10:50:15.972Z,96837.64
2023-01-09T10:52:46.531Z,96835.34
2023-01-09T10:55:18.658Z,96838.77
2023-01-09T10:57:51.020Z,96844.19
2023-01-09T11:00:27.954Z,96842.33
2023-01-09T11:02:56.842Z,96839.55
2023-01-09T11:05:28.877Z,96835.26
2023-01-09T11:08:04.477Z,96830.11
2023-01-09T11:10:47.949Z,96833.36
2023-01-09T11:13:22.022Z,96831.49
2023-01-09T11:16:04.665Z,96834.20
2023-01-09T11:18:35.315Z,96832.23
2023-01-09T11:21:25.675Z,96824.18
2023-01-09T11:23:54.570Z,96821.22
2023-01-09T11:26:26.154Z,96825.16
2023-01-09T11:29:10.987Z,96824.80
2023-01-09T11:31:41.314Z,96820.94
2023-01-09T11:34:17.570Z,96814.98
2023-01-09T11:36:47.499Z,96816.52
2023-01-09T11:39:24.178Z,96820.30
2023-01-09T11:41:55.683Z,96817.38
2023-01-09T11:44:25.745Z,96819.48
2023-01-09T11:46:54.834Z,96824.46
2023-01-09T11:49:25.541Z,96827.63
2023-01-09T11:52:15.659Z,96827.34
2023-01-09T11:54:49.072Z,96829.22
2023-01-09T11:57:18.449Z,96827.65
2023-01-09T11:59:47.466Z,96826.91
2023-01-09T12:02:38.295Z,96825.70
2023-01-09T12:06:05.449Z,96820.61
2023-01-09T12:08:47.664Z,96810.96
2023-01-09T12:11:28.302Z,96809.86
2023-01-09T12:14:22.593Z,96809.39
2023-01-09T12:17:15.125Z,96810.48
2023-01-09T12:30:42.524Z,96800.26
2023-01-09T12:33:28.227Z,96800.01
2023-01-09T12:36:11.899Z,96795.43
2023-01-09T12:38:54.608Z,96790.80
2023-01-09T12:41:57.481Z,96789.71
2023-01-09T12:44:53.075Z,96788.35
2023-01-09T12:47:46.667Z,96784.09
2023-01-09T12:50:44.864Z,96785.46
2023-01-09T12:53:28.013Z,96790.77
2023-01-09T12:56:23.402Z,96792.77
2023-01-09T12:58:59.919Z,96789.69
2023-01-09T13:01:40.281Z,96792.14
2023-01-09T13:04:18.610Z,96792.34
2023-01-09T13:06:57.316Z,96788.63
2023-01-09T13:09:34.374Z,96789.15
2023-01-09T13:12:13.166Z,96791.21
2023-01-09T13:14:53.240Z,96784.84
2023-01-09T13:17:31.193Z,96785.77
2023-01-09T13:20:03.474Z,96777.74
2023-01-09T13:22:35.803Z,96778.92
2023-01-09T13:25:33.311Z,96777.32
2023-01-09T13:28:13.868Z,96777.04
2023-01-09T13:31:12.000Z,96776.68
2023-01-09T13:33:47.413Z,96778.19
2023-01-09T13:36:27.468Z,96784.18
2023-01-09T13:39:03.722Z,96790.06
2023-01-09T13:42:04.867Z,96801.17
2023-01-09T13:44:37.244Z,96808.39
2023-01-09T13:47:21.230Z,96816.91
2023-01-09T13:50:28.077Z,96828.73
2023-01-09T13:53:37.592Z,96837.21
2023-01-09T13:56:10.374Z,96843.81
2023-01-09T13:59:05.827Z,96846.08
2023-01-09T14:01:47.563Z,96849.06
2023-01-09T14:04:47.116Z,96855.78
2023-01-09T14:07:23.734Z,96862.91
2023-01-09T14:10:01.886Z,96868.44
2023-01-09T14:12:42.104Z,96866.45
2023-01-09T14:15:29.056Z,96856.23
2023-01-09T14:18:04.821Z,96852.34
2023-01-09T14:20:41.140Z,96852.34
2023-01-09T14:23:49.751Z,96856.52
2023-01-09T14:26:22.663Z,96865.27
2023-01-09T14:29:15.151Z,96874.99
2023-01-09T14:31:48.433Z,96880.52
2023-01-09T14:34:39.525Z,96888.80
2023-01-09T14:37:15.987Z,96893.36
2023-01-09T14:39:50.646Z,96894.29
2023-01-09T14:42:29.544Z,96899.75
2023-01-09T14:45:07.275Z,96897.56
2023-01-09T14:47:44.374Z,96897.53
2023-01-09T14:50:26.187Z,96896.07
2023-01-09T14:53:05.702Z,96901.98
2023-01-09T14:55:50.753Z,96909.98
2023-01-09T14:58:25.693Z,96915.52
2023-01-09T15:01:06.138Z,96923.57
2023-01-09T15:03:45.928Z,96931.61
2023-01-09T15:06:21.586Z,96934.59
2023-01-09T15:08:58.401Z,96939.50
2023-01-09T15:11:33.221Z,96940.84
2023-01-09T15:14:10.353Z,96932.31
2023-01-09T15:16:45.815Z,96933.10
2023-01-09T15:19:20.482Z,96940.14
2023-01-09T15:22:07.675Z,96944.00
2023-01-09T15:24:40.099Z,96951.95
2023-01-09T15:27:19.397Z,96956.02
2023-01-09T15:29:52.202Z,96963.55
2023-01-09T15:32:29.622Z,96967.70
2023-01-09T15:35:02.414Z,96970.61
2023-01-09T15:37:39.273Z,96974.11
2023-01-09T15:40:26.791Z,96974.14
2023-01-09T15:42:59.686Z,96971.64
2023-01-09T15:45:35.585Z,96974.73
2023-01-09T15:48:25.577Z,96981.42
2023-01-09T15:51:02.730Z,96978.29
2023-01-09T15:53:36.350Z,96979.13
2023-01-09T15:56:20.897Z,96988.70
2023-01-09T15:58:54.542Z,97000.92
2023-01-09T16:01:32.057Z,97004.83
2023-01-09T16:04:11.706Z,97007.66
2023-01-09T16:06:49.348Z,97008.58
2023-01-09T16:09:26.972Z,97011.30
2023-01-09T16:12:02.136Z,97013.45
2023-01-09T16:14:38.663Z,97011.36
2023-01-09T16:17:18.453Z,97021.31
2023-01-09T16:19:55.436Z,97028.58
2023-01-09T16:22:30.121Z,97025.56
2023-01-09T16:25:04.305Z,97022.63
2023-01-09T16:27:36.887Z,97022.42
2023-01-09T16:30:26.691Z,97027.48
2023-01-09T16:32:59.644Z,97028.04
2023-01-09T16:35:31.953Z,97028.01
2023-01-09T16:38:04.323Z,97033.71
2023-01-09T16:40:37.208Z,97037.79
2023-01-09T16:43:15.796Z,97042.42
2023-01-09T16:45:48.205Z,97043.54
2023-01-09T16:48:24.979Z,97045.90
2023-01-09T16:50:57.788Z,97046.94
2023-01-09T16:53:32.121Z,97049.08
2023-01-09T16:56:04.533Z,97050.20
2023-01-09T16:58:38.353Z,97048.08
2023-01-09T17:01:13.629Z,97057.19
2023-01-09T17:03:46.092Z,97065.20
2023-01-09T17:06:27.839Z,97072.05
2023-01-09T17:09:01.230Z,97073.04
2023-01-09T17:11:33.895Z,97070.00
2023-01-09T17:14:07.271Z,97059.59
2023-01-09T17:16:43.355Z,97060.14
2023-01-09T17:19:20.858Z,97066.33
2023-01-09T17:21:53.712Z,97067.14
2023-01-09T17:24:43.588Z,97073.27
2023-01-09T17:27:33.517Z,97075.31
2023-01-09T17:30:18.253Z,97083.33
2023-01-09T17:32:52.200Z,97096.51
2023-01-09T17:35:25.029Z,97099.99
2023-01-09T17:37:57.413Z,97091.73
2023-01-09T17:40:30.928Z,97094.38
2023-01-09T17:43:03.678Z,97104.55
2023-01-09T17:45:36.241Z,97107.77
2023-01-09T17:48:10.574Z,97109.11
2023-01-09T17:50:43.258Z,97109.91
2023-01-09T17:53:15.886Z,97120.10
2023-01-09T17:55:48.299Z,97124.61
2023-01-09T17:58:29.225Z,97129.02
2023-01-09T18:01:02.185Z,97128.04
2023-01-09T18:03:35.099Z,97121.67
2023-01-09T18:06:09.075Z,97117.01
2023-01-09T18:08:41.605Z,97115.77
2023-01-09T18:11:17.655Z,97116.54
2023-01-09T18:13:53.700Z,97123.55
2023-01-09T18:16:29.456Z,97128.42
2023-01-09T18:19:02.483Z,97131.95
2023-01-09T18:21:35.173Z,97135.66
2023-01-09T18:24:08.542Z,97141.12
2023-01-09T18:26:40.983Z,97143.09
2023-01-09T18:29:14.162Z,97142.18
2023-01-09T18:31:46.635Z,97145.52
2023-01-09T18:34:20.630Z,97148.58
2023-01-09T18:36:53.038Z,97151.02
2023-01-09T18:39:26.062Z,97155.42
2023-01-09T18:41:58.384Z,97155.14
2023-01-09T18:44:30.679Z,97161.11
2023-01-09T18:47:02.989Z,97165.51
2023-01-09T18:49:36.599Z,97167.11
2023-01-09T18:52:09.061Z,97167.70
2023-01-09T18:54:42.773Z,97162.90
2023-01-09T18:57:15.352Z,97161.23
2023-01-09T18:59:47.824Z,97167.36
2023-01-09T19:02:23.745Z,97166.19
2023-01-09T19:05:00.797Z,97159.38
2023-01-09T19:07:33.386Z,97158.81
2023-01-09T19:10:06.222Z,97163.83
2023-01-09T19:12:38.611Z,97166.78
2023-01-09T19:15:13.041Z,97169.52
2023-01-09T19:17:46.958Z,97174.00
2023-01-09T19:20:20.357Z,97176.89
2023-01-09T19:22:52.713Z,97176.63
2023-01-09T19:25:26.602Z,97173.69
2023-01-09T19:28:00.698Z,97173.88
2023-01-09T19:30:37.786Z,97183.50
2023-01-09T19:33:13.190Z,97188.54
2023-01-09T19:35:49.011Z,97198.62
2023-01-09T19:38:23.337Z,97201.34
2023-01-09T19:40:55.791Z,97205.70
2023-01-09T19:43:28.318Z,97204.20
2023-01-09T19:46:01.009Z,97207.86
2023-01-09T19:48:36.832Z,97210.46
2023-01-09T19:51:10.851Z,97210.38
2023-01-09T19:53:43.636Z,97213.31
2023-01-09T19:56:18.549Z,97210.77
2023-01-09T19:58:53.686Z,97213.16
2023-01-09T20:01:28.211Z,97213.41
2023-01-09T20:04:04.997Z,97218.77
2023-01-09T20:06:44.002Z,97221.16
2023-01-09T20:09:18.006Z,97223.79
2023-01-09T20:11:50.352Z,97224.15
2023-01-09T20:14:22.864Z,97225.05
2023-01-09T20:16:59.921Z,97227.48
2023-01-09T20:19:33.428Z,97232.75
2023-01-09T20:22:06.146Z,97230.41
2023-01-09T20:24:39.303Z,97234.55
2023-01-09T20:27:11.841Z,97235.98
2023-01-09T20:29:44.737Z,97236.10
2023-01-09T20:32:26.253Z,97234.52
2023-01-09T20:34:58.799Z,97237.06
2023-01-09T20:37:31.720Z,97242.36
2023-01-09T20:40:05.935Z,97254.09
2023-01-09T20:42:40.563Z,97261.91
2023-01-09T20:45:14.127Z,97262.23
2023-01-09T20:47:50.251Z,97267.52
2023-01-09T20:50:23.868Z,97267.95
2023-01-09T20:52:56.714Z,97273.17
2023-01-09T20:55:29.196Z,97277.46
2023-01-09T20:58:01.728Z,97278.56
2023-01-09T21:00:34.245Z,97277.77
2023-01-09T21:03:06.737Z,97274.45
2023-01-09T21:05:43.111Z,97274.95
2023-01-09T21:08:15.590Z,97280.99
2023-01-09T21:10:48.038Z,97280.10
2023-01-09T21:13:20.511Z,97279.37
2023-01-09T21:15:53.020Z,97280.36
2023-01-09T21:18:25.869Z,97279.27
2023-01-09T21:20:58.343Z,97279.25
2023-01-09T21:23:30.778Z,97283.81
2023-01-09T21:26:11.533Z,97279.45
2023-01-09T21:28:49.115Z,97284.09
2023-01-09T21:31:25.459Z,97287.30
2023-01-09T21:33:58.289Z,97287.90
2023-01-09T21:36:30.936Z,97290.19
2023-01-09T21:39:05.403Z,97293.58
2023-01-09T21:41:57.931Z,97296.20
2023-01-09T21:44:47.909Z,97296.66
2023-01-09T21:47:20.114Z,97295.47
2023-01-09T21:49:52.613Z,97300.63
2023-01-09T21:52:25.805Z,97300.73
2023-01-09T21:54:58.776Z,97303.31
2023-01-09T21:57:31.161Z,97306.55
2023-01-09T22:00:03.420Z,97309.66
2023-01-09T22:02:42.336Z,97308.70
2023-01-09T22:05:13.366Z,97308.80
2023-01-09T22:07:45.779Z,97310.48
2023-01-09T22:10:18.821Z,97312.99
2023-01-09T22:13:11.471Z,97318.78
2023-01-09T22:15:44.896Z,97326.70
2023-01-09T22:18:17.263Z,97329.73
2023-01-09T22:20:49.894Z,97333.45
2023-01-09T22:23:22.282Z,97338.63
2023-01-09T22:25:55.164Z,97343.84
2023-01-09T22:28:30.136Z,97344.70
2023-01-09T22:31:02.540Z,97342.60
2023-01-09T22:33:35.024Z,97344.45
2023-01-09T22:36:12.052Z,97347.77
2023-01-09T22:38:44.758Z,97350.03
2023-01-09T22:41:17.313Z,97351.89
2023-01-09T22:43:50.421Z,97349.80
2023-01-09T22:46:22.896Z,97354.65
2023-01-09T22:48:55.283Z,97361.09
2023-01-09T22:51:27.789Z,97361.55
2023-01-09T22:54:00.821Z,97365.20
2023-01-09T22:56:33.872Z,97368.27
2023-01-09T22:59:06.305Z,97368.58
2023-01-09T23:01:40.125Z,97378.16
2023-01-09T23:04:16.443Z,97378.46
2023-01-09T23:06:51.775Z,97379.87
2023-01-09T23:09:25.327Z,97383.59
2023-01-09T23:12:03.951Z,97383.86
2023-01-09T23:14:40.722Z,97383.91
2023-01-09T23:17:13.999Z,97385.83
2023-01-09T23:19:46.602Z,97391.63
2023-01-09T23:22:19.486Z,97391.55
2023-01-09T23:24:52.589Z,97391.02
2023-01-09T23:27:25.012Z,97392.36
2023-01-09T23:29:59.707Z,97389.49
2023-01-09T23:32:32.230Z,97393.89
2023-01-09T23:35:08.969Z,97396.30
2023-01-09T23:37:41.568Z,97394.73
2023-01-09T23:40:16.058Z,97391.69
2023-01-09T23:43:05.993Z,97392.38
2023-01-09T23:45:40.040Z,97393.77
2023-01-09T23:48:14.558Z,97393.61
2023-01-09T23:50:49.996Z,97396.77
2023-01-09T23:53:25.684Z,97399.38
2023-01-09T23:55:58.108Z,97400.73
2023-01-09T23:58:30.823Z,97395.73
